Time;durP1;ratioP1;P1;durP2;ratioP2;P2;SDS_P1;SDS_P2;PMS_P1;PMS_P2;Temp;Humidity;BMP_temperature;BMP_pressure;BME280_temperature;BME280_humidity;BME280_pressure;Samples;Min_cycle;Max_cycle;Signal;HPM_P1;HPM_P2
2021/08/09 00:00:27;;;;;;;;;6.33;6.33;;;;;23.40;59.05;98671.22;4893706;28;102181;-85
2021/08/09 00:02:55;;;;;;;;;6.33;6.00;;;;;23.40;59.24;98654.66;4892356;28;102093;-85
2021/08/09 00:05:22;;;;;;;;;5.67;5.67;;;;;23.40;59.23;98648.31;4902732;28;103532;-85
2021/08/09 00:07:49;;;;;;;;;5.67;5.33;;;;;23.39;59.09;98641.16;4851211;28;101970;-85
2021/08/09 00:10:21;;;;;;;;;8.00;5.33;;;;;23.38;59.09;98645.00;4908406;28;102081;-85
2021/08/09 00:13:01;;;;;;;;;6.67;6.33;;;;;23.37;59.13;98654.41;4904422;28;102461;-86
2021/08/09 00:15:35;;;;;;;;;6.00;6.00;;;;;23.38;59.05;98654.13;4905026;28;103049;-85
2021/08/09 00:18:09;;;;;;;;;6.00;5.00;;;;;23.37;59.26;98655.22;4909366;28;102181;-85
2021/08/09 00:20:46;;;;;;;;;9.00;6.00;;;;;23.37;59.18;98659.94;4899860;28;102059;-85
2021/08/09 00:23:21;;;;;;;;;6.00;5.00;;;;;23.37;59.20;98665.47;4845386;28;102075;-85
2021/08/09 00:25:55;;;;;;;;;6.00;6.00;;;;;23.36;58.85;98652.75;4905217;28;103267;-85
2021/08/09 00:28:27;;;;;;;;;8.33;5.67;;;;;23.35;58.97;98656.63;4896039;28;102193;-85
2021/08/09 00:31:00;;;;;;;;;8.33;6.67;;;;;23.36;58.80;98666.56;4900853;28;103677;-85
2021/08/09 00:33:33;;;;;;;;;7.67;7.00;;;;;23.36;58.70;98663.78;4895905;28;102222;-85
2021/08/09 00:36:08;;;;;;;;;6.67;6.67;;;;;23.34;58.86;98655.78;4910640;28;102883;-85
2021/08/09 00:38:40;;;;;;;;;6.67;6.00;;;;;23.33;58.56;98656.06;4893036;28;102631;-86
2021/08/09 00:41:14;;;;;;;;;7.00;6.67;;;;;23.32;58.57;98651.69;4891180;28;101824;-85
2021/08/09 00:43:46;;;;;;;;;4.00;4.00;;;;;23.32;58.69;98646.16;4903302;28;104816;-85
2021/08/09 00:46:19;;;;;;;;;6.00;5.00;;;;;23.31;58.48;98644.50;4898495;28;104015;-85
2021/08/09 00:48:46;;;;;;;;;4.33;4.33;;;;;23.28;58.54;98639.56;4896305;28;102173;-85
2021/08/09 00:51:14;;;;;;;;;5.67;4.67;;;;;23.30;58.42;98642.84;4897627;28;102241;-85
2021/08/09 00:53:41;;;;;;;;;7.00;5.67;;;;;23.27;58.57;98629.63;4894938;28;102066;-86
2021/08/09 00:56:08;;;;;;;;;4.67;4.67;;;;;23.27;58.41;98626.84;4894473;28;103589;-85
2021/08/09 00:58:35;;;;;;;;;6.33;5.67;;;;;23.26;58.39;98630.72;4902690;28;104385;-86
2021/08/09 01:01:02;;;;;;;;;6.00;5.00;;;;;23.23;58.32;98634.06;4908497;28;102303;-86
2021/08/09 01:03:30;;;;;;;;;4.67;4.00;;;;;23.22;58.60;98644.25;4879939;28;102186;-85
2021/08/09 01:05:57;;;;;;;;;6.00;5.00;;;;;23.23;58.42;98645.09;4902163;28;103294;-86
2021/08/09 01:08:36;;;;;;;;;5.00;4.67;;;;;23.22;58.40;98646.19;4893464;28;103089;-85
2021/08/09 01:11:15;;;;;;;;;5.00;5.00;;;;;23.21;58.27;98645.38;4888522;28;103407;-85
2021/08/09 01:13:56;;;;;;;;;5.33;5.33;;;;;23.20;58.25;98662.19;4874777;28;102812;-85
2021/08/09 01:16:37;;;;;;;;;4.33;4.00;;;;;23.16;58.12;98663.84;4846073;28;106946;-85
2021/08/09 01:19:42;;;;;;;;;5.00;5.00;;;;;23.21;57.80;98677.63;4876121;28;101943;-85
2021/08/09 01:22:36;;;;;;;;;5.00;4.00;;;;;23.21;57.98;98688.69;4824451;28;102137;-85
2021/08/09 01:25:39;;;;;;;;;4.00;4.00;;;;;23.19;57.91;98682.63;4873624;28;104519;-85
2021/08/09 01:28:12;;;;;;;;;5.00;4.00;;;;;23.16;57.77;98684.00;4865164;28;107243;-85
2021/08/09 01:30:47;;;;;;;;;5.00;4.00;;;;;23.16;57.98;98680.41;4889705;28;103862;-86
2021/08/09 01:33:22;;;;;;;;;4.33;3.67;;;;;23.11;57.63;98678.50;4898255;28;102215;-84
2021/08/09 01:35:57;;;;;;;;;3.00;3.00;;;;;23.10;57.80;98674.91;4915984;28;101961;-85
2021/08/09 01:38:28;;;;;;;;;4.67;3.00;;;;;23.10;57.84;98677.66;4926449;28;103160;-85
2021/08/09 01:41:02;;;;;;;;;6.00;4.00;;;;;23.11;57.67;98672.97;4898951;28;102176;-85
2021/08/09 01:43:36;;;;;;;;;4.00;4.00;;;;;23.09;57.29;98681.56;4912651;28;102164;-84
2021/08/09 01:46:12;;;;;;;;;4.33;3.00;;;;;23.09;57.49;98692.59;4925372;28;103003;-85
2021/08/09 01:48:47;;;;;;;;;3.00;3.00;;;;;23.07;57.25;98686.50;4934976;28;108094;-85
2021/08/09 01:51:21;;;;;;;;;3.00;3.00;;;;;23.06;57.33;98693.13;4923773;28;102374;-84
2021/08/09 01:53:53;;;;;;;;;3.00;3.00;;;;;23.06;57.31;98687.59;4917007;28;110184;-84
2021/08/09 01:56:20;;;;;;;;;4.00;3.33;;;;;23.04;57.31;98673.28;4931889;28;102131;-84
2021/08/09 01:58:48;;;;;;;;;2.33;2.33;;;;;23.05;57.21;98668.59;4936806;28;103178;-85
2021/08/09 02:01:15;;;;;;;;;4.00;3.00;;;;;23.03;56.89;98674.38;4931875;28;101612;-85
2021/08/09 02:03:42;;;;;;;;;3.67;2.33;;;;;23.03;57.10;98663.34;4916496;28;101953;-85
2021/08/09 02:06:10;;;;;;;;;2.67;2.67;;;;;23.02;56.91;98655.34;4938502;28;102141;-85
2021/08/09 02:08:37;;;;;;;;;2.67;2.67;;;;;23.00;56.84;98657.56;4926497;28;103817;-85
2021/08/09 02:11:15;;;;;;;;;4.00;3.00;;;;;23.01;57.10;98657.28;4915381;28;102206;-85
2021/08/09 02:13:49;;;;;;;;;2.67;2.67;;;;;22.92;57.17;98634.13;4930086;28;102020;-85
2021/08/09 02:16:20;;;;;;;;;3.00;3.00;;;;;23.02;57.23;98658.94;4924129;28;101989;-85
2021/08/09 02:18:54;;;;;;;;;4.00;4.00;;;;;23.01;56.93;98662.78;4916772;28;107926;-85
2021/08/09 02:21:25;;;;;;;;;2.00;1.67;;;;;23.00;56.83;98658.41;4920058;28;102046;-85
2021/08/09 02:23:54;;;;;;;;;3.33;3.33;;;;;22.99;56.72;98659.50;4920856;28;101702;-84
2021/08/09 02:26:33;;;;;;;;;2.67;2.67;;;;;23.01;56.65;98675.78;4915255;28;101994;-85
2021/08/09 02:29:06;;;;;;;;;3.00;2.33;;;;;22.98;56.85;98685.44;4922672;28;103423;-84
2021/08/09 02:31:33;;;;;;;;;1.67;1.67;;;;;22.98;56.56;98690.13;4916249;28;102213;-85
2021/08/09 02:34:01;;;;;;;;;3.33;2.67;;;;;22.98;56.43;98693.69;4917603;28;102021;-84
2021/08/09 02:36:28;;;;;;;;;2.00;2.00;;;;;22.98;56.57;98701.16;4912392;28;101736;-84
2021/08/09 02:38:55;;;;;;;;;2.33;1.67;;;;;22.94;56.54;98706.41;4916765;28;103394;-84
2021/08/09 02:41:22;;;;;;;;;2.67;2.67;;;;;22.93;56.54;98713.00;4923584;28;102180;-84
2021/08/09 02:43:50;;;;;;;;;2.67;2.67;;;;;22.95;56.30;98727.38;4939263;28;102328;-83
2021/08/09 02:46:17;;;;;;;;;3.00;3.00;;;;;22.91;56.43;98723.50;4927165;28;101958;-84
2021/08/09 02:48:44;;;;;;;;;2.00;1.33;;;;;22.93;56.44;98737.84;4933891;28;103260;-84
2021/08/09 02:51:11;;;;;;;;;3.33;3.33;;;;;22.92;56.40;98738.94;4908283;28;102169;-84
2021/08/09 02:53:39;;;;;;;;;2.33;2.33;;;;;22.93;56.29;98748.88;4924746;28;101825;-84
2021/08/09 02:56:06;;;;;;;;;1.67;1.67;;;;;22.91;56.40;98745.56;4924439;28;101662;-84
2021/08/09 02:58:33;;;;;;;;;2.67;2.67;;;;;22.90;56.39;98754.94;4921991;28;103663;-84
2021/08/09 03:01:00;;;;;;;;;2.00;1.00;;;;;22.91;56.21;98764.88;4905843;28;104268;-85
2021/08/09 03:03:28;;;;;;;;;3.00;3.00;;;;;22.91;56.08;98766.81;4906196;28;102213;-84
2021/08/09 03:05:57;;;;;;;;;1.33;1.33;;;;;22.89;55.94;98764.31;4900806;28;102279;-84
2021/08/09 03:08:28;;;;;;;;;2.00;2.00;;;;;22.89;56.03;98767.06;4916583;28;103495;-85
2021/08/09 03:10:55;;;;;;;;;1.67;1.67;;;;;22.88;55.82;98767.34;4921567;28;101817;-84
2021/08/09 03:13:23;;;;;;;;;2.33;2.00;;;;;22.76;55.85;98737.31;4946312;28;102108;-84
2021/08/09 03:15:50;;;;;;;;;2.00;2.00;;;;;22.88;55.77;98767.34;4926285;28;103180;-85
2021/08/09 03:18:18;;;;;;;;;2.67;2.00;;;;;22.88;55.94;98772.84;4911060;28;107901;-84
2021/08/09 03:20:45;;;;;;;;;2.00;2.00;;;;;22.74;55.83;98760.75;4907383;28;102152;-84
2021/08/09 03:23:12;;;;;;;;;3.33;3.33;;;;;22.86;55.69;98780.59;4900397;28;102358;-84
2021/08/09 03:25:40;;;;;;;;;2.33;2.00;;;;;22.85;55.70;98784.44;4907332;28;101879;-84
2021/08/09 03:28:07;;;;;;;;;3.33;2.00;;;;;22.84;55.53;98788.28;4901830;28;103907;-84
2021/08/09 03:30:34;;;;;;;;;3.00;2.00;;;;;22.85;55.60;98799.06;4902279;28;102188;-84
2021/08/09 03:33:02;;;;;;;;;2.00;2.00;;;;;22.85;55.39;98804.56;4900095;28;104333;-84
2021/08/09 03:35:29;;;;;;;;;1.00;1.00;;;;;22.84;55.44;98813.94;4903152;28;102391;-84
2021/08/09 03:37:56;;;;;;;;;1.67;1.00;;;;;22.75;55.36;98810.09;4909838;28;103862;-84
2021/08/09 03:40:23;;;;;;;;;1.67;1.67;;;;;22.82;55.45;98824.44;4903564;28;102347;-84
2021/08/09 03:42:52;;;;;;;;;1.67;1.67;;;;;22.83;55.21;98820.56;4918150;28;102291;-84
2021/08/09 03:45:20;;;;;;;;;1.33;1.33;;;;;22.81;55.22;98822.78;4917512;28;101788;-84
2021/08/09 03:47:47;;;;;;;;;1.00;1.00;;;;;22.81;55.03;98821.94;4917391;28;104662;-85
2021/08/09 03:50:14;;;;;;;;;1.33;1.33;;;;;22.79;55.29;98824.97;4912514;28;102116;-85
2021/08/09 03:52:48;;;;;;;;;2.33;1.00;;;;;22.80;54.99;98826.63;4909396;28;102141;-86
2021/08/09 03:55:16;;;;;;;;;2.00;0.67;;;;;22.65;54.95;98805.34;4912443;28;101768;-85
2021/08/09 03:57:43;;;;;;;;;2.33;2.33;;;;;22.79;54.93;98822.22;4897312;28;103457;-85
2021/08/09 04:00:11;;;;;;;;;1.67;1.67;;;;;22.78;55.08;98822.50;4906737;28;102805;-86
2021/08/09 04:02:39;;;;;;;;;1.67;1.67;;;;;22.76;54.86;98824.69;4908495;28;102190;-85
2021/08/09 04:05:10;;;;;;;;;1.00;1.00;;;;;22.76;54.68;98821.94;4910337;28;102123;-85
2021/08/09 04:07:37;;;;;;;;;2.33;2.00;;;;;22.74;54.71;98827.72;4901159;28;103677;-85
2021/08/09 04:10:06;;;;;;;;;1.67;1.67;;;;;22.74;54.79;98827.72;4902431;28;101895;-85
2021/08/09 04:12:33;;;;;;;;;2.67;2.67;;;;;22.73;54.84;98836.28;4918466;28;102051;-85
2021/08/09 04:15:00;;;;;;;;;5.00;3.00;;;;;22.72;54.91;98840.13;4910579;28;102114;-85
2021/08/09 04:17:28;;;;;;;;;2.33;2.00;;;;;22.71;54.44;98833.78;4906172;28;103947;-85
2021/08/09 04:19:55;;;;;;;;;3.00;3.00;;;;;22.70;54.67;98840.41;4925288;28;103098;-85
2021/08/09 04:22:22;;;;;;;;;2.33;2.33;;;;;22.70;54.65;98854.19;4922408;28;101868;-85
2021/08/09 04:24:49;;;;;;;;;2.67;2.67;;;;;22.69;54.39;98852.53;4939739;28;101832;-86
2021/08/09 04:27:16;;;;;;;;;3.00;2.00;;;;;22.69;54.42;98852.53;4915274;28;103386;-85
2021/08/09 04:29:43;;;;;;;;;0.67;0.67;;;;;22.68;54.27;98851.69;4946385;28;102205;-85
2021/08/09 04:32:12;;;;;;;;;2.00;2.00;;;;;22.69;54.18;98855.28;4935492;28;102088;-85
2021/08/09 04:34:39;;;;;;;;;2.00;2.00;;;;;22.65;54.38;98838.44;4924864;28;102309;-86
2021/08/09 04:37:07;;;;;;;;;2.67;1.67;;;;;22.65;54.58;98843.13;4936273;28;103542;-85
2021/08/09 04:39:34;;;;;;;;;2.00;1.67;;;;;22.63;54.22;98850.84;4912517;28;103551;-86
2021/08/09 04:42:01;;;;;;;;;1.67;1.67;;;;;22.63;54.39;98856.34;4939830;28;102309;-86
2021/08/09 04:44:38;;;;;;;;;2.00;2.00;;;;;22.63;54.30;98859.13;4935040;28;102204;-86
2021/08/09 04:47:05;;;;;;;;;1.67;1.67;;;;;22.61;54.15;98853.03;4927761;28;103446;-86
2021/08/09 04:49:32;;;;;;;;;3.00;2.33;;;;;22.59;54.19;98849.75;4931874;28;101629;-85
2021/08/09 04:51:59;;;;;;;;;2.00;2.00;;;;;22.58;54.15;98850.84;4926064;28;102893;-85
2021/08/09 04:54:27;;;;;;;;;1.67;1.67;;;;;22.58;54.07;98846.16;4927825;28;102167;-85
2021/08/09 04:56:54;;;;;;;;;2.00;2.00;;;;;22.56;54.05;98844.78;4948556;28;103439;-85
2021/08/09 04:59:21;;;;;;;;;1.00;1.00;;;;;22.53;54.11;98839.78;4907791;28;101923;-86
2021/08/09 05:01:48;;;;;;;;;0.67;0.67;;;;;22.53;54.19;98842.53;4919692;28;102083;-85
2021/08/09 05:04:16;;;;;;;;;0.67;0.67;;;;;22.53;54.02;98845.31;4927677;28;102214;-86
2021/08/09 05:06:43;;;;;;;;;2.33;1.33;;;;;22.54;54.09;98841.44;4923595;28;103442;-85
2021/08/09 05:09:10;;;;;;;;;1.67;1.67;;;;;22.54;54.07;98849.72;4937088;28;103158;-85
2021/08/09 05:11:37;;;;;;;;;2.33;2.00;;;;;22.51;53.86;98842.00;4919626;28;103131;-85
2021/08/09 05:14:05;;;;;;;;;1.00;1.00;;;;;22.50;53.91;98848.63;4924707;28;102350;-85
2021/08/09 05:16:34;;;;;;;;;2.33;1.67;;;;;22.39;53.82;98830.38;4925284;28;104519;-85
2021/08/09 05:19:03;;;;;;;;;0.67;0.67;;;;;22.49;53.93;98845.03;4916620;28;102922;-85
2021/08/09 05:21:31;;;;;;;;;1.33;1.33;;;;;22.47;53.75;98844.47;4929129;28;103971;-85
2021/08/09 05:24:01;;;;;;;;;1.00;1.00;;;;;22.47;54.04;98847.22;4927990;28;102049;-85
2021/08/09 05:26:29;;;;;;;;;1.67;1.67;;;;;22.48;53.70;98845.28;4905245;28;105989;-85
2021/08/09 05:28:58;;;;;;;;;2.33;1.00;;;;;22.47;53.84;98854.69;4923853;28;102502;-84
2021/08/09 05:31:28;;;;;;;;;1.67;1.67;;;;;22.47;53.60;98857.44;4937658;28;101848;-84
2021/08/09 05:33:55;;;;;;;;;1.00;1.00;;;;;22.46;53.60;98858.53;4919226;28;103932;-84
2021/08/09 05:36:23;;;;;;;;;0.67;0.67;;;;;22.46;53.96;98853.00;4931146;28;103403;-85
2021/08/09 05:38:50;;;;;;;;;0.67;0.67;;;;;22.44;53.78;98853.28;4939036;28;102307;-86
2021/08/09 05:41:17;;;;;;;;;2.33;0.67;;;;;22.44;53.59;98857.97;4918252;28;102552;-86
2021/08/09 05:43:44;;;;;;;;;0.67;0.67;;;;;22.45;53.83;98867.88;4916725;28;101748;-85
2021/08/09 05:46:11;;;;;;;;;1.67;0.67;;;;;22.43;53.62;98848.84;4925389;28;103820;-85
2021/08/09 05:48:38;;;;;;;;;0.67;0.67;;;;;22.44;53.69;98855.19;4914681;28;102266;-85
2021/08/09 05:51:05;;;;;;;;;1.00;1.00;;;;;22.42;53.84;98852.75;4925573;28;102010;-85
2021/08/09 05:53:33;;;;;;;;;1.00;1.00;;;;;22.44;53.86;98863.47;4923342;28;102143;-85
2021/08/09 05:56:00;;;;;;;;;1.67;0.67;;;;;22.43;53.70;98854.38;4913007;28;103188;-85
2021/08/09 05:58:27;;;;;;;;;1.33;0.67;;;;;22.44;53.77;98853.28;4947395;28;101997;-85
2021/08/09 06:00:54;;;;;;;;;2.00;2.00;;;;;22.44;53.71;98866.22;4936303;28;102034;-84
2021/08/09 06:03:24;;;;;;;;;1.00;1.00;;;;;22.45;53.61;98856.88;4929322;28;102164;-85
2021/08/09 06:05:54;;;;;;;;;0.67;0.67;;;;;22.42;53.77;98858.25;4919583;28;108523;-85
2021/08/09 06:08:23;;;;;;;;;0.67;0.67;;;;;22.43;53.63;98864.56;4928698;28;102078;-85
2021/08/09 06:10:50;;;;;;;;;1.67;1.67;;;;;22.44;53.71;98858.78;4923910;28;104491;-85
2021/08/09 06:13:17;;;;;;;;;1.00;1.00;;;;;22.44;53.90;98860.72;4920049;28;101870;-85
2021/08/09 06:15:45;;;;;;;;;2.00;1.00;;;;;22.44;53.60;98858.78;4875333;28;1402395;-85
2021/08/09 06:18:12;;;;;;;;;1.00;1.00;;;;;22.45;53.86;98863.22;4906969;28;103020;-85
2021/08/09 06:20:39;;;;;;;;;0.33;0.33;;;;;22.45;53.98;98860.47;4920497;28;102011;-85
2021/08/09 06:23:06;;;;;;;;;1.00;1.00;;;;;22.44;53.96;98867.06;4913157;28;104834;-85
2021/08/09 06:25:33;;;;;;;;;1.67;1.00;;;;;22.42;53.73;98858.25;4902914;28;103449;-86
2021/08/09 06:28:00;;;;;;;;;1.00;1.00;;;;;22.43;53.88;98859.06;4905776;28;101772;-85
2021/08/09 06:30:28;;;;;;;;;0.67;0.00;;;;;22.44;53.86;98857.97;4901359;28;102233;-86
2021/08/09 06:32:55;;;;;;;;;1.00;1.00;;;;;22.44;53.99;98866.22;4906625;28;102180;-85
2021/08/09 06:35:22;;;;;;;;;1.67;1.00;;;;;22.44;54.23;98855.19;4908620;28;108286;-85
2021/08/09 06:37:50;;;;;;;;;1.33;1.33;;;;;22.44;54.17;98856.03;4909362;28;102290;-85
2021/08/09 06:40:17;;;;;;;;;0.00;0.00;;;;;22.44;54.14;98857.97;4912204;28;103274;-85
2021/08/09 06:42:45;;;;;;;;;1.00;1.00;;;;;22.45;53.96;98854.09;4909061;28;102119;-86
2021/08/09 06:45:12;;;;;;;;;1.00;0.67;;;;;22.44;54.02;98864.31;4900244;28;103379;-85
2021/08/09 06:47:40;;;;;;;;;0.67;0.67;;;;;22.44;54.23;98857.97;4909255;28;102128;-86
2021/08/09 06:50:07;;;;;;;;;0.67;0.67;;;;;22.45;54.50;98856.88;4905057;28;102413;-85
2021/08/09 06:52:34;;;;;;;;;1.33;0.67;;;;;22.46;54.25;98853.00;4900705;28;103099;-85
2021/08/09 06:55:05;;;;;;;;;0.00;0.00;;;;;22.46;54.38;98856.59;4907250;28;103577;-85
2021/08/09 06:57:32;;;;;;;;;0.67;0.67;;;;;22.47;54.36;98849.16;4915127;28;101737;-85
2021/08/09 07:00:00;;;;;;;;;0.33;0.33;;;;;22.48;54.58;98848.03;4902812;28;102587;-85
2021/08/09 07:02:28;;;;;;;;;0.67;0.67;;;;;22.46;54.38;98847.50;4916029;28;104473;-83
2021/08/09 07:04:55;;;;;;;;;1.00;0.67;;;;;22.47;54.70;98855.47;4908294;28;103474;-86
2021/08/09 07:07:22;;;;;;;;;0.67;0.67;;;;;22.48;54.41;98850.81;4907395;28;102230;-86
2021/08/09 07:09:49;;;;;;;;;0.67;0.67;;;;;22.50;54.61;98859.63;4906050;28;102125;-85
2021/08/09 07:12:16;;;;;;;;;0.67;0.67;;;;;22.51;54.51;98855.78;4902592;28;102897;-85
2021/08/09 07:14:43;;;;;;;;;1.00;1.00;;;;;22.51;54.79;98850.28;4896466;28;106804;-85
2021/08/09 07:17:11;;;;;;;;;0.67;0.67;;;;;22.53;54.53;98853.56;4907598;28;102197;-85
2021/08/09 07:19:39;;;;;;;;;0.00;0.00;;;;;22.53;54.72;98859.09;4911626;28;102111;-85
2021/08/09 07:22:07;;;;;;;;;0.00;0.00;;;;;22.54;54.57;98863.50;4901460;28;102064;-85
2021/08/09 07:24:35;;;;;;;;;0.00;0.00;;;;;22.54;55.05;98860.75;4923235;28;103491;-85
2021/08/09 07:27:03;;;;;;;;;0.33;0.33;;;;;22.54;54.57;98852.47;4906539;28;102374;-85
2021/08/09 07:29:31;;;;;;;;;1.00;1.00;;;;;22.55;54.87;98857.72;4908032;28;102165;-84
2021/08/09 07:31:58;;;;;;;;;0.67;0.67;;;;;22.55;54.78;98854.97;4918564;28;102825;-84
2021/08/09 07:34:25;;;;;;;;;1.00;1.00;;;;;22.57;54.66;98851.94;4911658;28;108224;-86
2021/08/09 07:36:53;;;;;;;;;0.00;0.00;;;;;22.56;54.77;98848.34;4915127;28;102354;-86
2021/08/09 07:39:20;;;;;;;;;0.00;0.00;;;;;22.57;54.68;98855.50;4901486;28;101870;-85
2021/08/09 07:41:47;;;;;;;;;1.00;1.00;;;;;22.57;54.73;98858.28;4906391;28;101818;-86
2021/08/09 07:44:14;;;;;;;;;0.33;0.00;;;;;22.59;54.94;98855.25;4918334;28;103404;-86
2021/08/09 07:46:41;;;;;;;;;1.00;1.00;;;;;22.59;54.66;98853.31;4913960;28;102555;-85
2021/08/09 07:49:08;;;;;;;;;2.00;1.00;;;;;22.60;54.84;98854.16;4904919;28;102341;-85
2021/08/09 07:51:35;;;;;;;;;1.00;1.00;;;;;22.60;54.97;98860.47;4913014;28;102155;-86
2021/08/09 07:54:03;;;;;;;;;2.67;1.00;;;;;22.62;54.91;98857.44;4905773;28;103527;-86
2021/08/09 07:56:30;;;;;;;;;0.33;0.33;;;;;22.62;54.95;98860.22;4891991;28;104826;-85
2021/08/09 07:58:57;;;;;;;;;0.67;0.67;;;;;22.63;54.99;98864.63;4914429;28;101781;-86
2021/08/09 08:01:24;;;;;;;;;1.00;1.00;;;;;22.63;55.13;98870.97;4912151;28;102226;-86
2021/08/09 08:03:51;;;;;;;;;1.00;0.67;;;;;22.65;55.11;98867.91;4904459;28;103680;-86
2021/08/09 08:06:19;;;;;;;;;1.00;1.00;;;;;22.65;55.01;98862.41;4899391;28;102762;-86
2021/08/09 08:08:46;;;;;;;;;1.33;1.33;;;;;22.65;55.20;98863.25;4916027;28;103230;-86
2021/08/09 08:11:13;;;;;;;;;0.67;0.67;;;;;22.67;54.99;98865.72;4901782;28;102532;-85
2021/08/09 08:13:40;;;;;;;;;0.67;0.67;;;;;22.66;55.19;98864.91;4917099;28;103691;-86
2021/08/09 08:16:07;;;;;;;;;0.67;0.67;;;;;22.67;55.21;98872.06;4899537;28;102272;-86
2021/08/09 08:18:35;;;;;;;;;0.00;0.00;;;;;22.68;55.18;98861.88;4905008;28;110155;-85
2021/08/09 08:21:02;;;;;;;;;0.00;0.00;;;;;22.68;55.12;98876.50;4921451;28;102115;-86
2021/08/09 08:23:29;;;;;;;;;0.67;0.67;;;;;22.69;55.14;98874.56;4909664;28;103524;-86
2021/08/09 08:25:56;;;;;;;;;0.00;0.00;;;;;22.68;55.37;98878.44;4914606;28;101668;-86
2021/08/09 08:28:23;;;;;;;;;0.00;0.00;;;;;22.70;55.12;98879.00;4908543;28;101804;-86
2021/08/09 08:30:52;;;;;;;;;0.00;0.00;;;;;22.69;55.23;98880.09;4907259;28;103545;-86
2021/08/09 08:33:20;;;;;;;;;0.00;0.00;;;;;22.72;55.19;98885.06;4907305;28;103598;-86
2021/08/09 08:35:47;;;;;;;;;0.67;0.67;;;;;22.73;55.15;98889.50;4911589;28;103309;-86
2021/08/09 08:38:14;;;;;;;;;1.00;1.00;;;;;22.73;55.27;98883.97;4911356;28;103174;-86
2021/08/09 08:40:49;;;;;;;;;1.00;1.00;;;;;22.74;55.28;98891.13;4918124;28;103002;-85
2021/08/09 08:43:27;;;;;;;;;0.00;0.00;;;;;22.75;55.37;98890.03;4912279;28;103688;-86
2021/08/09 08:45:56;;;;;;;;;0.00;0.00;;;;;22.76;55.26;98888.09;4910651;28;102150;-85
2021/08/09 08:48:24;;;;;;;;;0.67;0.67;;;;;22.76;55.25;98877.91;4916910;28;102158;-85
2021/08/09 08:51:11;;;;;;;;;1.00;1.00;;;;;22.77;55.18;98879.56;4851854;28;102281;-85
2021/08/09 08:53:38;;;;;;;;;0.67;0.67;;;;;22.77;55.25;98887.00;4914383;28;103414;-85
2021/08/09 08:56:06;;;;;;;;;0.67;0.67;;;;;22.78;55.43;98886.75;4906278;28;104856;-85
2021/08/09 08:58:34;;;;;;;;;1.33;1.33;;;;;22.79;55.28;98884.78;4920500;28;101813;-85
2021/08/09 09:01:01;;;;;;;;;1.00;1.00;;;;;22.80;55.21;98880.94;4916385;28;103639;-85
2021/08/09 09:03:29;;;;;;;;;0.33;0.33;;;;;22.80;55.29;98880.94;4912152;28;108022;-86
2021/08/09 09:06:00;;;;;;;;;0.00;0.00;;;;;22.81;55.21;98883.44;4916784;28;101867;-85
2021/08/09 09:08:47;;;;;;;;;0.00;0.00;;;;;22.82;55.30;98878.75;4893473;28;103599;-85
2021/08/09 09:11:23;;;;;;;;;0.00;0.00;;;;;22.80;55.25;98876.25;4853150;28;101883;-85
2021/08/09 09:13:55;;;;;;;;;0.67;0.67;;;;;22.84;55.36;98874.59;4918984;28;104407;-85
2021/08/09 09:16:22;;;;;;;;;0.00;0.00;;;;;22.84;55.21;98877.38;4905137;28;111141;-85
2021/08/09 09:18:52;;;;;;;;;1.00;1.00;;;;;22.85;55.38;98881.78;4911172;28;102504;-85
2021/08/09 09:21:34;;;;;;;;;1.00;1.00;;;;;22.85;55.17;98879.03;4914483;28;101924;-85
2021/08/09 09:24:11;;;;;;;;;0.67;0.67;;;;;22.87;55.49;98874.09;4911119;28;108550;-86
2021/08/09 09:26:39;;;;;;;;;1.00;1.00;;;;;22.87;55.38;98871.31;4845888;28;102361;-85
2021/08/09 09:29:16;;;;;;;;;0.33;0.33;;;;;22.89;55.31;98873.78;4915496;28;102038;-85
2021/08/09 09:31:44;;;;;;;;;0.67;0.67;;;;;22.89;55.39;98869.09;4911340;28;102317;-85
2021/08/09 09:34:13;;;;;;;;;0.00;0.00;;;;;22.90;55.32;98870.78;4904720;28;103561;-86
2021/08/09 09:36:47;;;;;;;;;0.33;0.33;;;;;22.90;55.38;98876.28;4920030;28;101724;-85
2021/08/09 09:39:29;;;;;;;;;0.33;0.33;;;;;22.91;55.33;98882.63;4906710;28;101724;-85
2021/08/09 09:41:57;;;;;;;;;0.00;0.00;;;;;22.92;55.49;98876.81;4912503;28;102214;-86
2021/08/09 09:44:29;;;;;;;;;1.00;0.00;;;;;22.93;55.26;98878.47;4885580;28;103676;-86
2021/08/09 09:47:19;;;;;;;;;0.67;0.67;;;;;22.93;55.36;98874.91;4910407;28;101981;-85
2021/08/09 09:49:48;;;;;;;;;1.00;1.00;;;;;22.94;55.39;98874.63;4853087;28;101975;-86
2021/08/09 09:52:28;;;;;;;;;0.00;0.00;;;;;22.96;55.54;98886.22;4916761;28;102351;-86
2021/08/09 09:55:09;;;;;;;;;0.00;0.00;;;;;22.97;55.40;98881.50;4909189;28;103425;-85
2021/08/09 09:57:36;;;;;;;;;0.67;0.67;;;;;22.95;55.46;98870.78;4905651;28;103285;-85
2021/08/09 10:00:07;;;;;;;;;0.00;0.00;;;;;22.97;55.43;98871.31;4918865;28;101992;-86
2021/08/09 10:02:34;;;;;;;;;0.33;0.33;;;;;22.84;55.40;98843.44;4905553;28;102226;-85
2021/08/09 10:05:02;;;;;;;;;0.00;0.00;;;;;23.00;55.44;98876.31;4908728;28;103399;-85
2021/08/09 10:07:29;;;;;;;;;0.67;0.67;;;;;23.01;55.48;98872.41;4910222;28;101850;-85
2021/08/09 10:09:58;;;;;;;;;1.00;0.67;;;;;23.01;55.40;98875.16;4915627;28;101968;-85
2021/08/09 10:12:26;;;;;;;;;0.67;0.67;;;;;23.01;55.40;98875.16;4912202;28;102131;-85
2021/08/09 10:14:54;;;;;;;;;0.00;0.00;;;;;23.03;55.38;98872.97;4916289;28;103599;-85
2021/08/09 10:17:22;;;;;;;;;0.67;0.67;;;;;23.04;55.38;98874.66;4924018;28;102145;-86
2021/08/09 10:20:04;;;;;;;;;0.33;0.33;;;;;23.05;55.35;98883.75;4937352;28;102834;-85
2021/08/09 10:22:31;;;;;;;;;0.67;0.67;;;;;23.05;55.42;98881.81;4925897;28;101824;-86
2021/08/09 10:24:59;;;;;;;;;1.00;1.00;;;;;23.06;55.42;98886.22;4946176;28;103458;-86
2021/08/09 10:27:48;;;;;;;;;0.00;0.00;;;;;23.08;55.50;98880.44;4918618;28;102243;-86
2021/08/09 10:30:22;;;;;;;;;0.33;0.00;;;;;23.08;55.50;98877.66;4870031;28;102804;-85
2021/08/09 10:32:55;;;;;;;;;0.00;0.00;;;;;23.09;55.27;98880.16;4927638;28;102123;-85
2021/08/09 10:35:45;;;;;;;;;0.67;0.00;;;;;23.10;55.41;98870.75;4926076;28;103425;-85
2021/08/09 10:38:18;;;;;;;;;0.00;0.00;;;;;23.10;55.30;98881.78;4857239;28;102172;-86
2021/08/09 10:41:09;;;;;;;;;0.00;0.00;;;;;23.11;55.28;98877.94;4919150;28;101815;-86
2021/08/09 10:43:41;;;;;;;;;1.00;1.00;;;;;23.12;55.36;98885.13;4897488;28;102257;-84
2021/08/09 10:46:33;;;;;;;;;0.33;0.33;;;;;23.13;55.40;98884.03;4899679;28;103605;-86
2021/08/09 10:49:00;;;;;;;;;1.00;0.33;;;;;23.12;55.34;98879.59;4908844;28;103147;-86
2021/08/09 10:51:52;;;;;;;;;1.00;1.00;;;;;23.14;55.21;98880.13;4939407;28;103005;-86
2021/08/09 10:54:34;;;;;;;;;0.00;0.00;;;;;23.16;55.34;98877.13;4862833;28;102327;-86
2021/08/09 10:57:02;;;;;;;;;0.00;0.00;;;;;23.16;55.34;98873.53;4910501;28;107956;-86
2021/08/09 10:59:55;;;;;;;;;0.33;0.33;;;;;23.18;55.24;98882.38;4935228;28;105821;-86
2021/08/09 11:02:24;;;;;;;;;0.33;0.00;;;;;23.19;55.29;98867.47;4860168;28;102030;-86
2021/08/09 11:05:13;;;;;;;;;0.00;0.00;;;;;23.19;55.45;98871.03;4938271;28;102322;-86
2021/08/09 11:07:44;;;;;;;;;1.00;1.00;;;;;23.18;55.38;98865.81;4919653;28;108452;-85
2021/08/09 11:10:11;;;;;;;;;0.00;0.00;;;;;23.20;55.21;98867.19;4929435;28;103124;-85
2021/08/09 11:13:00;;;;;;;;;0.00;0.00;;;;;23.22;55.34;98865.00;4922438;28;101729;-85
2021/08/09 11:15:28;;;;;;;;;0.00;0.00;;;;;23.23;55.10;98869.41;4934730;28;104341;-86
2021/08/09 11:17:58;;;;;;;;;0.00;0.00;;;;;23.23;55.12;98860.28;4906617;28;103398;-86
2021/08/09 11:20:32;;;;;;;;;0.67;0.00;;;;;23.24;55.35;98864.69;4887936;28;102050;-86
2021/08/09 11:23:10;;;;;;;;;0.00;0.00;;;;;23.25;55.40;98860.84;4915469;28;102202;-86
2021/08/09 11:25:47;;;;;;;;;0.00;0.00;;;;;23.27;55.16;98869.69;4896830;28;103413;-84
2021/08/09 11:28:17;;;;;;;;;0.67;0.67;;;;;23.28;55.30;98866.63;4895412;28;103454;-85
2021/08/09 11:30:47;;;;;;;;;1.00;1.00;;;;;23.30;55.19;98866.34;4902841;28;101687;-86
2021/08/09 11:33:33;;;;;;;;;1.00;1.00;;;;;23.30;55.10;98880.97;4914314;28;102074;-86
2021/08/09 11:36:08;;;;;;;;;0.00;0.00;;;;;23.31;55.04;98870.78;4897695;28;102096;-86
2021/08/09 11:38:49;;;;;;;;;0.00;0.00;;;;;23.33;55.25;98868.53;4892130;28;108299;-86